createdAt,value
2019-03-20T00:00:18.005Z,99893.64
2019-03-20T00:02:48.365Z,99899.85
2019-03-20T00:05:16.473Z,99900.80
2019-03-20T00:07:44.778Z,99900.46
2019-03-20T00:10:12.951Z,99901.50
2019-03-20T00:12:41.268Z,99895.19
2019-03-20T00:15:10.550Z,99896.89
2019-03-20T00:17:38.828Z,99902.02
2019-03-20T00:20:08.396Z,99908.80
2019-03-20T00:22:36.485Z,99912.28
2019-03-20T00:25:04.685Z,99913.84
2019-03-20T00:27:33.838Z,99907.56
2019-03-20T00:30:01.880Z,99903.44
2019-03-20T00:32:30.580Z,99904.41
2019-03-20T00:35:01.322Z,99905.98
2019-03-20T00:37:29.264Z,99911.11
2019-03-20T00:39:59.292Z,99905.70
2019-03-20T00:42:27.518Z,99911.95
2019-03-20T00:44:56.240Z,99913.31
2019-03-20T00:47:24.403Z,99906.39
2019-03-20T00:49:52.711Z,99909.91
2019-03-20T00:52:20.806Z,99909.95
2019-03-20T00:54:49.201Z,99900.45
2019-03-20T00:57:17.664Z,99908.19
2019-03-20T00:59:45.625Z,99907.31
2019-03-20T01:02:13.612Z,99911.42
2019-03-20T01:04:41.600Z,99908.19
2019-03-20T01:07:10.276Z,99905.62
2019-03-20T01:09:38.356Z,99902.27
2019-03-20T01:12:06.590Z,99906.03
2019-03-20T01:14:34.860Z,99901.84
2019-03-20T01:17:03.042Z,99905.23
2019-03-20T01:19:30.998Z,99899.84
2019-03-20T01:21:59.259Z,99896.53
2019-03-20T01:24:27.594Z,99898.75
2019-03-20T01:26:55.641Z,99897.09
2019-03-20T01:29:25.220Z,99895.89
2019-03-20T01:31:53.250Z,99889.16
2019-03-20T01:34:24.238Z,99891.66
2019-03-20T01:36:58.352Z,99889.58
2019-03-20T01:39:26.735Z,99896.70
2019-03-20T01:41:55.200Z,99894.23
2019-03-20T01:44:23.259Z,99892.93
2019-03-20T01:46:51.477Z,99891.66
2019-03-20T01:49:19.526Z,99895.05
2019-03-20T01:51:47.859Z,99897.06
2019-03-20T01:54:16.169Z,99894.09
2019-03-20T01:56:44.691Z,99891.10
2019-03-20T01:59:12.691Z,99895.83
2019-03-20T02:01:41.584Z,99893.81
2019-03-20T02:04:09.636Z,99895.18
2019-03-20T02:06:37.604Z,99890.95
2019-03-20T02:09:06.701Z,99887.60
2019-03-20T02:11:34.671Z,99885.48
2019-03-20T02:14:04.810Z,99889.39
2019-03-20T02:16:35.099Z,99893.16
2019-03-20T02:19:03.232Z,99891.50
2019-03-20T02:21:31.204Z,99897.36
2019-03-20T02:23:59.159Z,99899.50
2019-03-20T02:26:27.288Z,99896.15
2019-03-20T02:28:55.387Z,99894.40
2019-03-20T02:31:23.380Z,99895.18
2019-03-20T02:33:51.317Z,99895.11
2019-03-20T02:36:19.634Z,99896.87
2019-03-20T02:38:48.985Z,99899.95
2019-03-20T02:41:16.906Z,99903.00
2019-03-20T02:43:45.195Z,99904.13
2019-03-20T02:46:13.399Z,99903.70
2019-03-20T02:48:41.346Z,99910.98
2019-03-20T02:51:09.622Z,99910.13
2019-03-20T02:53:53.533Z,99902.58
2019-03-20T02:56:21.544Z,99909.73
2019-03-20T02:58:49.567Z,99906.86
2019-03-20T03:01:39.379Z,99906.09
2019-03-20T03:04:08.660Z,99908.23
2019-03-20T03:06:36.832Z,99903.94
2019-03-20T03:09:07.356Z,99903.00
2019-03-20T03:11:35.346Z,99906.98
2019-03-20T03:14:03.335Z,99909.07
2019-03-20T03:16:31.849Z,99907.44
2019-03-20T03:18:59.842Z,99905.66
2019-03-20T03:21:28.131Z,99899.50
2019-03-20T03:23:56.350Z,99896.69
2019-03-20T03:26:24.694Z,99900.52
2019-03-20T03:28:52.785Z,99902.27
2019-03-20T03:31:21.137Z,99907.86
2019-03-20T03:33:49.076Z,99915.55
2019-03-20T03:36:21.510Z,99919.81
2019-03-20T03:38:47.383Z,99915.58
2019-03-20T03:41:15.302Z,99913.47
2019-03-20T03:43:43.266Z,99916.36
2019-03-20T03:46:12.056Z,99912.98
2019-03-20T03:49:04.506Z,99920.96
2019-03-20T03:51:54.249Z,99922.28
2019-03-20T03:54:22.316Z,99925.77
2019-03-20T03:56:50.230Z,99925.32
2019-03-20T03:59:25.030Z,99933.81
2019-03-20T04:01:56.925Z,99936.84
2019-03-20T04:04:26.837Z,99947.84
2019-03-20T04:06:56.743Z,99942.35
2019-03-20T04:09:25.628Z,99946.55
2019-03-20T04:11:53.657Z,99941.44
2019-03-20T04:14:21.867Z,99936.28
2019-03-20T04:16:49.848Z,99940.53
2019-03-20T04:19:18.267Z,99943.10
2019-03-20T04:21:46.269Z,99938.86
2019-03-20T04:24:14.410Z,99943.53
2019-03-20T04:26:42.319Z,99944.36
2019-03-20T04:29:10.568Z,99941.39
2019-03-20T04:31:39.672Z,99954.91
2019-03-20T04:34:08.198Z,99949.86
2019-03-20T04:36:47.241Z,99955.02
2019-03-20T04:39:07.659Z,99957.09
2019-03-20T04:41:35.642Z,99964.72
2019-03-20T04:44:04.999Z,99964.28
2019-03-20T04:46:34.205Z,99972.32
2019-03-20T04:49:02.262Z,99966.45
2019-03-20T04:51:30.394Z,99969.78
2019-03-20T04:54:06.298Z,99963.80
2019-03-20T04:56:48.439Z,99969.33
2019-03-20T04:59:13.951Z,99974.85
2019-03-20T05:01:43.008Z,99984.52
2019-03-20T05:04:13.540Z,99975.71
2019-03-20T05:06:57.982Z,99979.99
2019-03-20T05:09:17.940Z,99982.11
2019-03-20T05:11:46.034Z,99987.22
2019-03-20T05:14:14.425Z,99989.31
2019-03-20T05:16:42.701Z,99999.45
2019-03-20T05:19:10.803Z,100001.14
2019-03-20T05:21:38.720Z,100004.45
2019-03-20T05:24:06.750Z,100006.50
2019-03-20T05:26:34.742Z,100006.52
2019-03-20T05:29:02.790Z,100016.63
2019-03-20T05:31:31.080Z,100005.23
2019-03-20T05:34:00.129Z,100016.21
2019-03-20T05:36:28.468Z,100012.44
2019-03-20T05:38:56.718Z,100014.14
2019-03-20T05:41:24.742Z,100017.97
2019-03-20T05:43:53.003Z,100014.15
2019-03-20T05:46:21.016Z,100012.91
2019-03-20T05:48:48.995Z,100009.10
2019-03-20T05:51:17.104Z,100017.53
2019-03-20T05:53:45.075Z,100019.61
2019-03-20T05:56:13.113Z,100025.51
2019-03-20T05:58:41.404Z,100036.06
2019-03-20T06:01:09.479Z,100034.34
2019-03-20T06:03:37.654Z,100038.09
2019-03-20T06:06:05.802Z,100039.78
2019-03-20T06:08:34.103Z,100039.78
2019-03-20T06:11:02.095Z,100043.59
2019-03-20T06:13:30.074Z,100042.70
2019-03-20T06:15:58.343Z,100037.10
2019-03-20T06:18:26.281Z,100035.30
2019-03-20T06:20:54.340Z,100031.41
2019-03-20T06:23:22.326Z,100031.28
2019-03-20T06:25:51.626Z,100031.34
2019-03-20T06:28:20.932Z,100030.91
2019-03-20T06:30:49.239Z,100031.41
2019-03-20T06:33:17.412Z,100040.31
2019-03-20T06:35:45.555Z,100041.58
2019-03-20T06:38:13.690Z,100047.01
2019-03-20T06:40:41.802Z,100052.91
2019-03-20T06:43:09.741Z,100053.16
2019-03-20T06:45:38.112Z,100055.58
2019-03-20T06:48:06.281Z,100051.28
2019-03-20T06:50:34.607Z,100059.62
2019-03-20T06:53:02.596Z,100069.39
2019-03-20T06:55:30.701Z,100068.00
2019-03-20T06:57:58.646Z,100076.94
2019-03-20T07:01:04.529Z,100082.84
2019-03-20T07:04:11.424Z,100078.33
2019-03-20T07:07:43.505Z,100079.31
2019-03-20T07:10:40.406Z,100084.70
2019-03-20T07:13:08.555Z,100081.84
2019-03-20T07:15:36.735Z,100084.06
2019-03-20T07:18:05.018Z,100082.83
2019-03-20T07:20:33.034Z,100092.63
2019-03-20T07:23:01.064Z,100096.77
2019-03-20T07:25:29.155Z,100101.92
2019-03-20T07:27:57.194Z,100095.98
2019-03-20T07:30:25.178Z,100096.19
2019-03-20T07:32:54.088Z,100087.66
2019-03-20T07:35:22.409Z,100100.28
2019-03-20T07:37:55.819Z,100102.22
2019-03-20T07:40:20.338Z,100101.16
2019-03-20T07:42:48.332Z,100102.98
2019-03-20T07:45:17.454Z,100106.31
2019-03-20T07:47:45.456Z,100109.77
2019-03-20T07:50:15.254Z,100107.38
2019-03-20T07:52:43.325Z,100099.74
2019-03-20T07:55:11.950Z,100102.29
2019-03-20T07:57:40.208Z,100103.46
2019-03-20T08:00:11.621Z,100102.42
2019-03-20T08:02:39.668Z,100111.08
2019-03-20T08:05:09.571Z,100110.59
2019-03-20T08:07:37.664Z,100113.15
2019-03-20T08:10:09.489Z,100110.81
2019-03-20T08:12:38.026Z,100115.77
2019-03-20T08:15:09.369Z,100109.93
2019-03-20T08:17:37.856Z,100122.00
2019-03-20T08:20:08.857Z,100126.28
2019-03-20T08:22:37.120Z,100134.93
2019-03-20T08:25:05.572Z,100126.92
2019-03-20T08:27:33.601Z,100128.61
2019-03-20T08:30:02.536Z,100132.88
2019-03-20T08:32:32.099Z,100129.57
2019-03-20T08:35:00.332Z,100126.37
2019-03-20T08:37:28.930Z,100130.30
2019-03-20T08:39:56.993Z,100128.14
2019-03-20T08:42:25.153Z,100125.98
2019-03-20T08:44:53.197Z,100122.56
2019-03-20T08:47:21.293Z,100121.67
2019-03-20T08:49:49.264Z,100130.00
2019-03-20T08:52:17.318Z,100122.20
2019-03-20T08:54:45.327Z,100121.47
2019-03-20T08:57:13.424Z,100122.95
2019-03-20T08:59:41.533Z,100125.98
2019-03-20T09:02:09.668Z,100124.91
2019-03-20T09:04:40.105Z,100129.25
2019-03-20T09:07:08.651Z,100136.44
2019-03-20T09:09:36.991Z,100133.59
2019-03-20T09:12:05.067Z,100133.70
2019-03-20T09:14:33.320Z,100137.58
2019-03-20T09:17:01.349Z,100137.77
2019-03-20T09:19:29.430Z,100138.97
2019-03-20T09:21:57.543Z,100133.70
2019-03-20T09:24:25.653Z,100132.30
2019-03-20T09:26:54.252Z,100129.18
2019-03-20T09:29:24.211Z,100127.53
2019-03-20T09:31:52.302Z,100131.64
2019-03-20T09:34:20.383Z,100133.73
2019-03-20T09:36:48.392Z,100134.91
2019-03-20T09:39:16.545Z,100132.20
2019-03-20T09:41:44.822Z,100130.02
2019-03-20T09:44:12.785Z,100133.66
2019-03-20T09:46:40.866Z,100130.64
2019-03-20T09:49:10.121Z,100130.36
2019-03-20T09:51:40.424Z,100133.61
2019-03-20T09:54:08.606Z,100130.17
2019-03-20T09:56:36.670Z,100136.53
2019-03-20T09:59:05.175Z,100141.56
2019-03-20T10:01:33.494Z,100129.73
2019-03-20T10:04:01.528Z,100130.64
2019-03-20T10:06:30.288Z,100128.27
2019-03-20T10:08:58.894Z,100131.37
2019-03-20T10:11:26.871Z,100129.99
2019-03-20T10:13:55.226Z,100120.27
2019-03-20T10:16:23.643Z,100128.76
2019-03-20T10:18:51.952Z,100132.58
2019-03-20T10:21:19.973Z,100126.13
2019-03-20T10:23:48.314Z,100123.88
2019-03-20T10:26:16.554Z,100126.66
2019-03-20T10:28:44.593Z,100132.52
2019-03-20T10:31:12.585Z,100131.52
2019-03-20T10:33:40.601Z,100132.33
2019-03-20T10:36:13.029Z,100139.03
2019-03-20T10:38:41.293Z,100141.55
2019-03-20T10:41:09.372Z,100136.85
2019-03-20T10:43:38.714Z,100134.00
2019-03-20T10:46:07.390Z,100134.80
2019-03-20T10:48:35.418Z,100131.64
2019-03-20T10:51:03.516Z,100131.82
2019-03-20T10:53:31.904Z,100125.90
2019-03-20T10:56:02.146Z,100123.63
2019-03-20T10:58:32.127Z,100130.56
2019-03-20T11:01:00.743Z,100126.90
2019-03-20T11:03:29.116Z,100124.73
2019-03-20T11:05:57.256Z,100134.30
2019-03-20T11:08:25.340Z,100134.34
2019-03-20T11:10:53.348Z,100136.27
2019-03-20T11:13:21.720Z,100142.73
2019-03-20T11:15:49.725Z,100136.91
2019-03-20T11:18:17.795Z,100136.04
2019-03-20T11:20:45.754Z,100128.89
2019-03-20T11:23:14.409Z,100134.97
2019-03-20T11:25:42.448Z,100131.13
2019-03-20T11:28:10.560Z,100130.92
2019-03-20T11:30:38.584Z,100131.39
2019-03-20T11:33:06.698Z,100119.84
2019-03-20T11:35:34.821Z,100121.23
2019-03-20T11:38:02.820Z,100121.80
2019-03-20T11:40:31.070Z,100111.06
2019-03-20T11:42:59.069Z,100113.38
2019-03-20T11:45:27.273Z,100118.84
2019-03-20T11:47:55.571Z,100106.63
2019-03-20T11:50:36.854Z,100107.52
2019-03-20T11:53:05.312Z,100101.91
2019-03-20T11:55:33.472Z,100096.64
2019-03-20T11:58:02.190Z,100103.72
2019-03-20T12:00:30.396Z,100096.34
2019-03-20T12:02:58.629Z,100091.41
2019-03-20T12:05:26.652Z,100083.36
2019-03-20T12:07:54.650Z,100075.52
2019-03-20T12:10:22.688Z,100076.95
2019-03-20T12:12:51.025Z,100075.36
2019-03-20T12:15:19.011Z,100078.44
2019-03-20T12:17:47.164Z,100067.97
2019-03-20T12:20:17.096Z,100072.41
2019-03-20T12:22:53.880Z,100072.80
2019-03-20T12:25:26.158Z,100065.71
2019-03-20T12:27:54.193Z,100058.00
2019-03-20T12:30:24.760Z,100056.66
2019-03-20T12:32:52.901Z,100051.77
2019-03-20T12:35:23.045Z,100050.56
2019-03-20T12:37:52.449Z,100050.65
2019-03-20T12:40:23.057Z,100051.11
2019-03-20T12:42:51.368Z,100042.00
2019-03-20T12:45:21.718Z,100042.05
2019-03-20T12:47:49.797Z,100039.59
2019-03-20T12:50:18.072Z,100042.00
2019-03-20T12:52:46.109Z,100038.51
2019-03-20T12:55:15.456Z,100030.11
2019-03-20T12:57:43.688Z,100025.15
2019-03-20T13:00:15.391Z,100022.29
2019-03-20T13:02:43.799Z,100019.41
2019-03-20T13:05:12.259Z,100027.37
2019-03-20T13:07:40.347Z,100025.00
2019-03-20T13:10:10.898Z,100023.11
2019-03-20T13:12:38.884Z,100015.10
2019-03-20T13:15:09.942Z,100014.45
2019-03-20T13:17:38.141Z,100015.48
2019-03-20T13:20:07.546Z,100012.02
2019-03-20T13:22:35.921Z,100010.02
2019-03-20T13:25:05.102Z,100010.13
2019-03-20T13:27:34.009Z,100003.31
2019-03-20T13:30:02.190Z,100002.42
2019-03-20T13:32:31.614Z,100009.06
2019-03-20T13:34:59.940Z,99994.33
2019-03-20T13:37:29.228Z,99991.34
2019-03-20T13:39:57.632Z,99991.37
2019-03-20T13:42:25.640Z,99992.22
2019-03-20T13:44:54.799Z,99987.49
2019-03-20T13:47:23.517Z,99992.69
2019-03-20T13:49:58.644Z,99988.74
2019-03-20T13:52:26.716Z,99992.20
2019-03-20T13:54:54.732Z,99990.16
2019-03-20T13:57:22.694Z,99981.79
2019-03-20T13:59:50.862Z,99983.27
2019-03-20T14:02:19.280Z,99978.29
2019-03-20T14:04:47.592Z,99975.66
2019-03-20T14:07:15.667Z,99978.41
2019-03-20T14:09:43.845Z,99977.91
2019-03-20T14:12:11.913Z,99976.92
2019-03-20T14:14:40.020Z,99974.06
2019-03-20T14:17:08.843Z,99977.58
2019-03-20T14:19:37.014Z,99968.18
2019-03-20T14:22:05.765Z,99963.40
2019-03-20T14:24:35.999Z,99962.55
2019-03-20T14:27:03.751Z,99961.98
2019-03-20T14:29:31.971Z,99960.08
2019-03-20T14:31:59.938Z,99960.30
2019-03-20T14:34:28.052Z,99958.70
2019-03-20T14:36:56.074Z,99955.72
2019-03-20T14:39:24.328Z,99955.09
2019-03-20T14:41:52.872Z,99955.09
2019-03-20T14:44:21.075Z,99955.17
2019-03-20T14:46:51.959Z,99953.91
2019-03-20T14:49:20.253Z,99945.49
2019-03-20T14:51:48.668Z,99949.00
2019-03-20T14:54:16.638Z,99956.68
2019-03-20T14:56:44.637Z,99948.90
2019-03-20T14:59:12.643Z,99946.48
2019-03-20T15:01:40.661Z,99941.70
2019-03-20T15:04:08.940Z,99933.41
2019-03-20T15:06:36.979Z,99930.80
2019-03-20T15:09:07.783Z,99936.12
2019-03-20T15:11:35.787Z,99935.11
2019-03-20T15:14:04.941Z,99928.48
2019-03-20T15:16:33.257Z,99925.72
2019-03-20T15:19:01.261Z,99922.89
2019-03-20T15:21:29.561Z,99930.09
2019-03-20T15:23:57.788Z,99926.37
2019-03-20T15:26:26.045Z,99921.61
2019-03-20T15:28:54.063Z,99920.86
2019-03-20T15:31:22.188Z,99924.81
2019-03-20T15:33:50.586Z,99924.16
2019-03-20T15:36:18.613Z,99928.23
2019-03-20T15:38:46.883Z,99927.47
2019-03-20T15:41:14.876Z,99933.90
2019-03-20T15:43:42.820Z,99934.97
2019-03-20T15:46:10.953Z,99937.58
2019-03-20T15:48:39.198Z,99936.88
2019-03-20T15:51:07.289Z,99936.65
2019-03-20T15:53:35.424Z,99934.12
2019-03-20T15:56:03.568Z,99942.31
2019-03-20T15:58:31.606Z,99940.70
2019-03-20T16:00:59.621Z,99944.06
2019-03-20T16:03:29.522Z,99941.73
2019-03-20T16:05:57.910Z,99937.75
2019-03-20T16:08:26.371Z,99940.96
2019-03-20T16:10:54.388Z,99942.06
2019-03-20T16:13:22.358Z,99944.03
2019-03-20T16:15:50.533Z,99949.07
2019-03-20T16:18:18.712Z,99949.79
2019-03-20T16:20:46.758Z,99960.61
2019-03-20T16:23:15.271Z,99961.94
2019-03-20T16:25:43.763Z,99974.23
2019-03-20T16:28:12.098Z,99974.13
2019-03-20T16:30:40.574Z,99970.95
2019-03-20T16:33:09.101Z,99970.09
2019-03-20T16:35:37.275Z,99972.41
2019-03-20T16:38:07.060Z,99973.92
2019-03-20T16:40:35.330Z,99972.54
2019-03-20T16:43:03.323Z,99973.85
2019-03-20T16:45:31.312Z,99972.87
2019-03-20T16:47:59.335Z,99985.69
2019-03-20T16:50:27.393Z,99979.94
2019-03-20T16:52:55.503Z,99984.48
2019-03-20T16:55:23.589Z,99980.84
2019-03-20T16:57:55.069Z,99982.39
2019-03-20T17:00:26.376Z,99987.64
2019-03-20T17:02:54.620Z,99996.23
2019-03-20T17:05:22.812Z,99997.12
2019-03-20T17:07:50.809Z,99996.13
2019-03-20T17:10:31.245Z,99994.91
2019-03-20T17:12:59.828Z,99989.38
2019-03-20T17:15:30.092Z,99994.16
2019-03-20T17:17:58.066Z,100001.21
2019-03-20T17:20:26.139Z,99994.41
2019-03-20T17:22:54.564Z,100000.88
2019-03-20T17:25:22.767Z,100001.50
2019-03-20T17:27:50.852Z,100003.23
2019-03-20T17:30:25.327Z,100009.63
2019-03-20T17:32:53.481Z,100010.19
2019-03-20T17:35:21.837Z,100019.98
2019-03-20T17:37:54.476Z,100018.88
2019-03-20T17:40:22.824Z,100019.87
2019-03-20T17:42:51.302Z,100021.37
2019-03-20T17:45:20.050Z,100010.80
2019-03-20T17:47:49.027Z,100016.04
2019-03-20T17:50:26.176Z,100018.05
2019-03-20T17:52:54.327Z,100010.50
2019-03-20T17:55:22.774Z,100014.19
2019-03-20T17:57:52.696Z,100012.88
2019-03-20T18:00:35.745Z,100012.40
2019-03-20T18:03:04.681Z,100010.16
2019-03-20T18:05:33.183Z,100010.84
2019-03-20T18:08:01.900Z,100006.87
2019-03-20T18:10:35.586Z,100010.64
2019-03-20T18:13:06.215Z,100010.64
2019-03-20T18:15:35.054Z,100022.09
2019-03-20T18:18:06.309Z,100026.14
2019-03-20T18:20:38.314Z,100026.80
2019-03-20T18:23:08.184Z,100035.41
2019-03-20T18:25:39.404Z,100037.98
2019-03-20T18:28:08.214Z,100043.05
2019-03-20T18:30:40.009Z,100036.59
2019-03-20T18:33:12.352Z,100041.41
2019-03-20T18:35:41.810Z,100050.86
2019-03-20T18:38:09.813Z,100049.28
2019-03-20T18:40:37.893Z,100057.58
2019-03-20T18:43:06.501Z,100057.33
2019-03-20T18:45:34.498Z,100058.98
2019-03-20T18:48:02.744Z,100058.95
2019-03-20T18:50:30.935Z,100060.11
2019-03-20T18:52:58.902Z,100065.48
2019-03-20T18:55:27.238Z,100061.16
2019-03-20T18:57:55.761Z,100057.88
2019-03-20T19:00:24.655Z,100066.98
2019-03-20T19:02:53.928Z,100061.35
2019-03-20T19:06:02.625Z,100055.70
2019-03-20T19:08:31.095Z,100062.67
2019-03-20T19:10:59.358Z,100062.33
2019-03-20T19:13:27.716Z,100067.64
2019-03-20T19:15:56.227Z,100063.34
2019-03-20T19:18:24.569Z,100068.48
2019-03-20T19:20:52.849Z,100072.83
2019-03-20T19:23:21.270Z,100071.84
2019-03-20T19:25:49.468Z,100079.98
2019-03-20T19:28:17.469Z,100075.91
2019-03-20T19:30:45.563Z,100075.25
2019-03-20T19:33:13.650Z,100079.25
2019-03-20T19:35:42.979Z,100086.08
2019-03-20T19:38:11.050Z,100082.62
2019-03-20T19:40:39.531Z,100084.10
2019-03-20T19:43:07.701Z,100076.84
2019-03-20T19:45:35.742Z,100083.74
2019-03-20T19:48:03.896Z,100079.45
2019-03-20T19:50:31.921Z,100084.84
2019-03-20T19:53:00.118Z,100084.11
2019-03-20T19:55:28.549Z,100083.87
2019-03-20T19:57:56.477Z,100083.50
2019-03-20T20:00:24.847Z,100091.72
2019-03-20T20:02:52.994Z,100092.72
2019-03-20T20:05:21.041Z,100092.55
2019-03-20T20:07:49.105Z,100095.02
2019-03-20T20:10:17.273Z,100103.80
2019-03-20T20:12:45.361Z,100102.96
2019-03-20T20:15:16.820Z,100101.47
2019-03-20T20:17:47.052Z,100100.73
2019-03-20T20:20:17.599Z,100100.87
2019-03-20T20:22:46.084Z,100107.52
2019-03-20T20:25:14.274Z,100102.58
2019-03-20T20:27:42.653Z,100104.07
2019-03-20T20:30:14.147Z,100109.02
2019-03-20T20:32:42.339Z,100105.31
2019-03-20T20:35:11.295Z,100100.57
2019-03-20T20:37:39.628Z,100109.30
2019-03-20T20:40:10.452Z,100111.23
2019-03-20T20:42:43.265Z,100112.80
2019-03-20T20:45:11.440Z,100110.02
2019-03-20T20:47:39.770Z,100114.82
2019-03-20T20:50:08.297Z,100115.19
2019-03-20T20:52:36.282Z,100111.32
2019-03-20T20:55:05.570Z,100111.69
2019-03-20T20:57:33.670Z,100110.84
2019-03-20T21:00:02.005Z,100110.27
2019-03-20T21:02:30.132Z,100109.86
2019-03-20T21:04:58.665Z,100109.48
2019-03-20T21:07:26.728Z,100113.41
2019-03-20T21:09:55.494Z,100110.24
2019-03-20T21:12:23.540Z,100106.48
2019-03-20T21:14:51.949Z,100114.92
2019-03-20T21:17:41.476Z,100110.18
2019-03-20T21:20:10.313Z,100117.95
2019-03-20T21:23:49.657Z,100113.52
2019-03-20T21:26:19.469Z,100116.14
2019-03-20T21:29:47.722Z,100111.45
2019-03-20T21:32:32.965Z,100121.47
2019-03-20T21:36:12.498Z,100118.15
2019-03-20T21:38:41.963Z,100122.64
2019-03-20T21:42:30.052Z,100118.97
2019-03-20T21:45:32.831Z,100119.92
2019-03-20T21:48:01.838Z,100123.86
2019-03-20T21:51:14.343Z,100127.70
2019-03-20T21:54:43.882Z,100130.80
2019-03-20T21:58:00.493Z,100123.81
2019-03-20T22:01:35.532Z,100128.89
2019-03-20T22:04:04.455Z,100135.41
2019-03-20T22:07:04.675Z,100135.75
2019-03-20T22:10:31.870Z,100131.94
2019-03-20T22:13:34.761Z,100120.84
2019-03-20T22:17:03.192Z,100133.31
2019-03-20T22:20:39.052Z,100125.06
2019-03-20T22:24:00.853Z,100129.16
2019-03-20T22:27:35.935Z,100122.23
2019-03-20T22:30:06.053Z,100119.56
2019-03-20T22:33:30.388Z,100123.06
2019-03-20T22:36:11.582Z,100131.30
2019-03-20T22:39:45.970Z,100129.11
2019-03-20T22:42:34.149Z,100135.64
2019-03-20T22:46:23.792Z,100133.55
2019-03-20T22:49:46.851Z,100138.68
2019-03-20T22:52:50.359Z,100136.91
2019-03-20T22:55:57.481Z,100131.08
2019-03-20T22:58:45.010Z,100136.28
2019-03-20T23:01:19.492Z,100134.50
2019-03-20T23:04:02.059Z,100137.23
2019-03-20T23:06:31.207Z,100139.03
2019-03-20T23:09:00.250Z,100133.55
2019-03-20T23:11:29.222Z,100136.60
2019-03-20T23:13:58.024Z,100133.62
2019-03-20T23:16:27.942Z,100133.41
2019-03-20T23:18:57.239Z,100127.38
2019-03-20T23:21:26.027Z,100126.03
2019-03-20T23:23:54.800Z,100121.27
2019-03-20T23:26:24.133Z,100116.59
2019-03-20T23:28:53.620Z,100123.59
2019-03-20T23:31:22.526Z,100124.45
2019-03-20T23:33:52.056Z,100122.13
2019-03-20T23:36:20.933Z,100123.66
2019-03-20T23:38:50.926Z,100120.63
2019-03-20T23:41:20.837Z,100115.36
2019-03-20T23:43:53.216Z,100121.59
2019-03-20T23:46:20.556Z,100120.28
2019-03-20T23:48:58.111Z,100115.66
2019-03-20T23:51:27.360Z,100117.73
2019-03-20T23:53:57.810Z,100110.73
2019-03-20T23:56:29.452Z,100109.15
2019-03-20T23:58:59.251Z,100106.84
